sensor_id;sensor_type;location;lat;lon;timestamp;pressure;altitude;pressure_sealevel;temperature;humidity
17311;BME280;8773;43.300;0.394;2023-07-30T00:00:38;100055.47;;;22.20;nan
17311;BME280;8773;43.300;0.394;2023-07-30T00:03:06;100042.97;;;22.12;nan
17311;BME280;8773;43.300;0.394;2023-07-30T00:05:34;100040.50;;;22.36;nan
17311;BME280;8773;43.300;0.394;2023-07-30T00:08:01;100033.66;;;22.45;nan
17311;BME280;8773;43.300;0.394;2023-07-30T00:10:30;100039.97;;;22.63;nan
17311;BME280;8773;43.300;0.394;2023-07-30T00:12:58;100035.94;;;22.66;nan
17311;BME280;8773;43.300;0.394;2023-07-30T00:15:25;100035.28;;;22.71;nan
17311;BME280;8773;43.300;0.394;2023-07-30T00:17:53;100030.66;;;22.71;nan
17311;BME280;8773;43.300;0.394;2023-07-30T00:20:20;100036.94;;;22.72;nan
17311;BME280;8773;43.300;0.394;2023-07-30T00:22:48;100033.06;;;22.61;nan
17311;BME280;8773;43.300;0.394;2023-07-30T00:25:16;100036.72;;;22.73;nan
17311;BME280;8773;43.300;0.394;2023-07-30T00:27:44;100040.75;;;22.82;nan
17311;BME280;8773;43.300;0.394;2023-07-30T00:30:12;100041.91;;;22.75;nan
17311;BME280;8773;43.300;0.394;2023-07-30T00:32:40;100037.53;;;22.74;nan
17311;BME280;8773;43.300;0.394;2023-07-30T00:35:09;100034.50;;;22.63;nan
17311;BME280;8773;43.300;0.394;2023-07-30T00:37:37;100034.13;;;22.60;nan
17311;BME280;8773;43.300;0.394;2023-07-30T00:40:06;100034.88;;;22.49;nan
17311;BME280;8773;43.300;0.394;2023-07-30T00:42:33;100037.16;;;22.52;nan
17311;BME280;8773;43.300;0.394;2023-07-30T00:45:02;100033.06;;;22.43;nan
17311;BME280;8773;43.300;0.394;2023-07-30T00:47:30;100038.34;;;22.38;nan
17311;BME280;8773;43.300;0.394;2023-07-30T00:49:58;100036.38;;;22.45;nan
17311;BME280;8773;43.300;0.394;2023-07-30T00:52:26;100041.06;;;22.38;nan
17311;BME280;8773;43.300;0.394;2023-07-30T00:54:54;100028.13;;;22.33;nan
17311;BME280;8773;43.300;0.394;2023-07-30T00:57:25;100035.19;;;22.41;nan
17311;BME280;8773;43.300;0.394;2023-07-30T00:59:53;100035.75;;;22.24;nan
17311;BME280;8773;43.300;0.394;2023-07-30T01:02:22;100039.69;;;22.28;nan
17311;BME280;8773;43.300;0.394;2023-07-30T01:04:50;100041.19;;;22.24;nan
17311;BME280;8773;43.300;0.394;2023-07-30T01:07:17;100037.94;;;22.16;nan
17311;BME280;8773;43.300;0.394;2023-07-30T01:09:45;100028.56;;;22.12;nan
17311;BME280;8773;43.300;0.394;2023-07-30T01:12:13;100032.72;;;22.14;nan
17311;BME280;8773;43.300;0.394;2023-07-30T01:14:41;100038.97;;;22.15;nan
17311;BME280;8773;43.300;0.394;2023-07-30T01:17:10;100033.00;;;22.06;nan
17311;BME280;8773;43.300;0.394;2023-07-30T01:19:40;100039.75;;;21.97;nan
17311;BME280;8773;43.300;0.394;2023-07-30T01:22:11;100043.72;;;22.01;nan
17311;BME280;8773;43.300;0.394;2023-07-30T01:24:38;100037.97;;;21.91;nan
17311;BME280;8773;43.300;0.394;2023-07-30T01:27:08;100034.03;;;21.87;nan
17311;BME280;8773;43.300;0.394;2023-07-30T01:29:42;100030.09;;;22.01;nan
17311;BME280;8773;43.300;0.394;2023-07-30T01:32:13;100031.31;;;22.05;nan
17311;BME280;8773;43.300;0.394;2023-07-30T01:34:42;100025.66;;;22.07;nan
17311;BME280;8773;43.300;0.394;2023-07-30T01:37:13;100028.22;;;22.02;nan
17311;BME280;8773;43.300;0.394;2023-07-30T01:39:42;100033.63;;;21.83;nan
17311;BME280;8773;43.300;0.394;2023-07-30T01:42:12;100021.31;;;21.81;nan
17311;BME280;8773;43.300;0.394;2023-07-30T01:44:40;100024.00;;;22.06;nan
17311;BME280;8773;43.300;0.394;2023-07-30T01:47:07;100028.16;;;22.08;nan
17311;BME280;8773;43.300;0.394;2023-07-30T01:49:35;100028.06;;;21.96;nan
17311;BME280;8773;43.300;0.394;2023-07-30T01:52:03;100030.28;;;22.06;nan
17311;BME280;8773;43.300;0.394;2023-07-30T01:54:32;100034.75;;;22.19;nan
17311;BME280;8773;43.300;0.394;2023-07-30T01:57:00;100023.59;;;22.27;nan
17311;BME280;8773;43.300;0.394;2023-07-30T01:59:27;100018.16;;;22.27;nan
17311;BME280;8773;43.300;0.394;2023-07-30T02:01:55;100021.44;;;22.36;nan
17311;BME280;8773;43.300;0.394;2023-07-30T02:04:23;100015.53;;;22.39;nan
17311;BME280;8773;43.300;0.394;2023-07-30T02:06:50;100019.22;;;22.26;nan
17311;BME280;8773;43.300;0.394;2023-07-30T02:09:20;100020.16;;;22.13;nan
17311;BME280;8773;43.300;0.394;2023-07-30T02:11:50;100021.25;;;22.30;nan
17311;BME280;8773;43.300;0.394;2023-07-30T02:14:17;100024.22;;;22.04;nan
17311;BME280;8773;43.300;0.394;2023-07-30T02:16:45;100025.88;;;21.55;nan
17311;BME280;8773;43.300;0.394;2023-07-30T02:19:12;100024.38;;;21.59;nan
17311;BME280;8773;43.300;0.394;2023-07-30T02:21:40;100028.03;;;21.78;nan
17311;BME280;8773;43.300;0.394;2023-07-30T02:24:08;100024.16;;;21.92;nan
17311;BME280;8773;43.300;0.394;2023-07-30T02:26:35;100024.94;;;21.93;nan
17311;BME280;8773;43.300;0.394;2023-07-30T02:29:04;100032.09;;;22.12;nan
17311;BME280;8773;43.300;0.394;2023-07-30T02:31:32;100027.97;;;22.28;nan
17311;BME280;8773;43.300;0.394;2023-07-30T02:34:00;100018.72;;;22.36;nan
17311;BME280;8773;43.300;0.394;2023-07-30T02:36:27;100029.59;;;22.36;nan
17311;BME280;8773;43.300;0.394;2023-07-30T02:38:55;100032.13;;;22.30;nan
17311;BME280;8773;43.300;0.394;2023-07-30T02:41:22;100035.50;;;22.08;nan
17311;BME280;8773;43.300;0.394;2023-07-30T02:43:50;100036.34;;;21.83;nan
17311;BME280;8773;43.300;0.394;2023-07-30T02:46:19;100034.41;;;21.90;nan
17311;BME280;8773;43.300;0.394;2023-07-30T02:48:46;100034.94;;;21.99;nan
17311;BME280;8773;43.300;0.394;2023-07-30T02:51:14;100039.59;;;22.17;nan
17311;BME280;8773;43.300;0.394;2023-07-30T02:53:43;100032.81;;;22.26;nan
17311;BME280;8773;43.300;0.394;2023-07-30T02:56:10;100031.69;;;22.34;nan
17311;BME280;8773;43.300;0.394;2023-07-30T02:58:38;100039.41;;;22.37;nan
17311;BME280;8773;43.300;0.394;2023-07-30T03:01:06;100034.41;;;22.34;nan
17311;BME280;8773;43.300;0.394;2023-07-30T03:03:35;100042.56;;;21.90;nan
17311;BME280;8773;43.300;0.394;2023-07-30T03:06:03;100039.06;;;21.83;nan
17311;BME280;8773;43.300;0.394;2023-07-30T03:08:30;100045.47;;;21.64;nan
17311;BME280;8773;43.300;0.394;2023-07-30T03:10:58;100049.59;;;21.73;nan
17311;BME280;8773;43.300;0.394;2023-07-30T03:13:26;100051.03;;;21.76;nan
17311;BME280;8773;43.300;0.394;2023-07-30T03:15:53;100051.38;;;21.86;nan
17311;BME280;8773;43.300;0.394;2023-07-30T03:18:21;100059.19;;;21.76;nan
17311;BME280;8773;43.300;0.394;2023-07-30T03:20:50;100056.41;;;21.51;nan
17311;BME280;8773;43.300;0.394;2023-07-30T03:23:17;100050.75;;;21.52;nan
17311;BME280;8773;43.300;0.394;2023-07-30T03:25:45;100049.56;;;21.48;nan
17311;BME280;8773;43.300;0.394;2023-07-30T03:28:12;100046.38;;;21.51;nan
17311;BME280;8773;43.300;0.394;2023-07-30T03:30:40;100049.38;;;21.75;nan
17311;BME280;8773;43.300;0.394;2023-07-30T03:33:07;100043.84;;;21.56;nan
17311;BME280;8773;43.300;0.394;2023-07-30T03:35:35;100046.84;;;21.48;nan
17311;BME280;8773;43.300;0.394;2023-07-30T03:38:04;100050.44;;;21.42;nan
17311;BME280;8773;43.300;0.394;2023-07-30T03:40:32;100050.81;;;21.46;nan
17311;BME280;8773;43.300;0.394;2023-07-30T03:42:59;100052.75;;;21.70;nan
17311;BME280;8773;43.300;0.394;2023-07-30T03:45:27;100049.13;;;21.83;nan
17311;BME280;8773;43.300;0.394;2023-07-30T03:47:55;100047.22;;;21.83;nan
17311;BME280;8773;43.300;0.394;2023-07-30T03:50:22;100051.78;;;21.89;nan
17311;BME280;8773;43.300;0.394;2023-07-30T03:52:50;100056.53;;;21.94;nan
17311;BME280;8773;43.300;0.394;2023-07-30T03:55:19;100052.13;;;21.93;nan
17311;BME280;8773;43.300;0.394;2023-07-30T03:57:46;100051.69;;;21.96;nan
17311;BME280;8773;43.300;0.394;2023-07-30T04:00:14;100057.00;;;21.91;nan
17311;BME280;8773;43.300;0.394;2023-07-30T04:02:42;100061.38;;;21.60;nan
17311;BME280;8773;43.300;0.394;2023-07-30T04:05:10;100057.38;;;21.31;nan
17311;BME280;8773;43.300;0.394;2023-07-30T04:07:37;100065.84;;;21.48;nan
17311;BME280;8773;43.300;0.394;2023-07-30T04:10:09;100067.41;;;21.62;nan
17311;BME280;8773;43.300;0.394;2023-07-30T04:12:38;100067.34;;;21.76;nan
17311;BME280;8773;43.300;0.394;2023-07-30T04:15:07;100072.97;;;21.81;nan
17311;BME280;8773;43.300;0.394;2023-07-30T04:17:35;100066.22;;;21.90;nan
17311;BME280;8773;43.300;0.394;2023-07-30T04:20:04;100067.00;;;21.65;nan
17311;BME280;8773;43.300;0.394;2023-07-30T04:22:32;100075.34;;;21.71;nan
17311;BME280;8773;43.300;0.394;2023-07-30T04:25:00;100081.44;;;21.59;nan
17311;BME280;8773;43.300;0.394;2023-07-30T04:27:27;100082.91;;;21.24;nan
17311;BME280;8773;43.300;0.394;2023-07-30T04:29:59;100094.56;;;21.31;nan
17311;BME280;8773;43.300;0.394;2023-07-30T04:32:26;100099.16;;;21.37;nan
17311;BME280;8773;43.300;0.394;2023-07-30T04:34:54;100093.38;;;21.20;nan
17311;BME280;8773;43.300;0.394;2023-07-30T04:37:21;100092.50;;;21.26;nan
17311;BME280;8773;43.300;0.394;2023-07-30T04:39:49;100094.81;;;21.23;nan
17311;BME280;8773;43.300;0.394;2023-07-30T04:42:16;100089.81;;;21.20;nan
17311;BME280;8773;43.300;0.394;2023-07-30T04:44:44;100099.34;;;20.97;nan
17311;BME280;8773;43.300;0.394;2023-07-30T04:47:13;100099.16;;;20.79;nan
17311;BME280;8773;43.300;0.394;2023-07-30T04:49:41;100101.06;;;20.72;nan
17311;BME280;8773;43.300;0.394;2023-07-30T04:52:08;100100.63;;;20.75;nan
17311;BME280;8773;43.300;0.394;2023-07-30T04:54:36;100089.78;;;20.68;nan
17311;BME280;8773;43.300;0.394;2023-07-30T04:57:04;100104.41;;;20.67;nan
17311;BME280;8773;43.300;0.394;2023-07-30T04:59:32;100100.19;;;20.91;nan
17311;BME280;8773;43.300;0.394;2023-07-30T05:01:59;100102.19;;;21.09;nan
17311;BME280;8773;43.300;0.394;2023-07-30T05:04:28;100098.06;;;21.00;nan
17311;BME280;8773;43.300;0.394;2023-07-30T05:06:56;100098.72;;;20.95;nan
17311;BME280;8773;43.300;0.394;2023-07-30T05:09:23;100094.16;;;20.89;nan
17311;BME280;8773;43.300;0.394;2023-07-30T05:11:51;100099.16;;;20.92;nan
17311;BME280;8773;43.300;0.394;2023-07-30T05:14:18;100097.25;;;20.86;nan
17311;BME280;8773;43.300;0.394;2023-07-30T05:16:46;100094.25;;;21.14;nan
17311;BME280;8773;43.300;0.394;2023-07-30T05:19:14;100091.22;;;21.36;nan
17311;BME280;8773;43.300;0.394;2023-07-30T05:21:43;100085.03;;;21.53;nan
17311;BME280;8773;43.300;0.394;2023-07-30T05:24:10;100099.41;;;21.67;nan
17311;BME280;8773;43.300;0.394;2023-07-30T05:26:38;100089.44;;;21.86;nan
17311;BME280;8773;43.300;0.394;2023-07-30T05:29:05;100100.63;;;21.71;nan
17311;BME280;8773;43.300;0.394;2023-07-30T05:31:33;100098.09;;;21.76;nan
17311;BME280;8773;43.300;0.394;2023-07-30T05:34:01;100108.38;;;21.68;nan
17311;BME280;8773;43.300;0.394;2023-07-30T05:36:28;100102.22;;;21.85;nan
17311;BME280;8773;43.300;0.394;2023-07-30T05:38:57;100105.03;;;21.97;nan
17311;BME280;8773;43.300;0.394;2023-07-30T05:41:25;100100.72;;;21.89;nan
17311;BME280;8773;43.300;0.394;2023-07-30T05:43:52;100107.81;;;21.90;nan
17311;BME280;8773;43.300;0.394;2023-07-30T05:46:20;100111.72;;;21.94;nan
17311;BME280;8773;43.300;0.394;2023-07-30T05:48:47;100107.88;;;22.09;nan
17311;BME280;8773;43.300;0.394;2023-07-30T05:51:15;100104.47;;;22.13;nan
17311;BME280;8773;43.300;0.394;2023-07-30T05:53:42;100097.16;;;22.14;nan
17311;BME280;8773;43.300;0.394;2023-07-30T05:56:11;100101.03;;;22.24;nan
17311;BME280;8773;43.300;0.394;2023-07-30T05:58:41;100103.94;;;22.29;nan
17311;BME280;8773;43.300;0.394;2023-07-30T06:01:09;100113.75;;;22.06;nan
17311;BME280;8773;43.300;0.394;2023-07-30T06:03:37;100106.38;;;22.38;nan
17311;BME280;8773;43.300;0.394;2023-07-30T06:06:04;100097.53;;;22.17;nan
17311;BME280;8773;43.300;0.394;2023-07-30T06:08:32;100105.19;;;22.27;nan
17311;BME280;8773;43.300;0.394;2023-07-30T06:11:00;100108.59;;;22.47;nan
17311;BME280;8773;43.300;0.394;2023-07-30T06:13:30;100120.97;;;22.43;nan
17311;BME280;8773;43.300;0.394;2023-07-30T06:15:57;100111.47;;;22.52;nan
17311;BME280;8773;43.300;0.394;2023-07-30T06:18:25;100116.53;;;22.49;nan
17311;BME280;8773;43.300;0.394;2023-07-30T06:20:53;100121.03;;;22.37;nan
17311;BME280;8773;43.300;0.394;2023-07-30T06:23:20;100121.47;;;22.09;nan
17311;BME280;8773;43.300;0.394;2023-07-30T06:25:48;100115.53;;;22.18;nan
17311;BME280;8773;43.300;0.394;2023-07-30T06:28:15;100135.56;;;22.49;nan
17311;BME280;8773;43.300;0.394;2023-07-30T06:30:47;100128.66;;;22.71;nan
17311;BME280;8773;43.300;0.394;2023-07-30T06:33:14;100136.16;;;22.76;nan
17311;BME280;8773;43.300;0.394;2023-07-30T06:35:42;100132.44;;;22.70;nan
17311;BME280;8773;43.300;0.394;2023-07-30T06:38:09;100137.50;;;23.03;nan
17311;BME280;8773;43.300;0.394;2023-07-30T06:40:37;100143.22;;;23.20;nan
17311;BME280;8773;43.300;0.394;2023-07-30T06:43:05;100140.75;;;22.93;nan
17311;BME280;8773;43.300;0.394;2023-07-30T06:45:32;100142.66;;;22.75;nan
17311;BME280;8773;43.300;0.394;2023-07-30T06:48:03;100150.59;;;22.94;nan
17311;BME280;8773;43.300;0.394;2023-07-30T06:50:31;100146.50;;;22.85;nan
17311;BME280;8773;43.300;0.394;2023-07-30T06:52:59;100150.75;;;23.00;nan
17311;BME280;8773;43.300;0.394;2023-07-30T06:55:26;100153.09;;;22.78;nan
17311;BME280;8773;43.300;0.394;2023-07-30T06:57:54;100145.47;;;22.43;nan
17311;BME280;8773;43.300;0.394;2023-07-30T07:00:21;100152.34;;;22.46;nan
17311;BME280;8773;43.300;0.394;2023-07-30T07:02:49;100155.72;;;22.66;nan
17311;BME280;8773;43.300;0.394;2023-07-30T07:05:18;100158.75;;;22.76;nan
17311;BME280;8773;43.300;0.394;2023-07-30T07:07:46;100164.66;;;22.73;nan
17311;BME280;8773;43.300;0.394;2023-07-30T07:10:13;100165.66;;;22.97;nan
17311;BME280;8773;43.300;0.394;2023-07-30T07:12:41;100156.91;;;23.13;nan
17311;BME280;8773;43.300;0.394;2023-07-30T07:15:08;100160.13;;;23.04;nan
17311;BME280;8773;43.300;0.394;2023-07-30T07:17:36;100149.34;;;23.15;nan
17311;BME280;8773;43.300;0.394;2023-07-30T07:20:05;100152.75;;;23.59;nan
17311;BME280;8773;43.300;0.394;2023-07-30T07:22:34;100162.72;;;23.95;nan
17311;BME280;8773;43.300;0.394;2023-07-30T07:25:02;100156.44;;;23.65;nan
17311;BME280;8773;43.300;0.394;2023-07-30T07:27:29;100142.56;;;23.96;nan
17311;BME280;8773;43.300;0.394;2023-07-30T07:29:57;100164.59;;;23.83;nan
17311;BME280;8773;43.300;0.394;2023-07-30T07:32:24;100166.75;;;23.62;nan
17311;BME280;8773;43.300;0.394;2023-07-30T07:34:52;100169.88;;;23.29;nan
17311;BME280;8773;43.300;0.394;2023-07-30T07:37:19;100159.81;;;23.30;nan
17311;BME280;8773;43.300;0.394;2023-07-30T07:39:49;100175.38;;;23.59;nan
17311;BME280;8773;43.300;0.394;2023-07-30T07:42:16;100163.06;;;23.87;nan
17311;BME280;8773;43.300;0.394;2023-07-30T07:44:44;100155.16;;;23.97;nan
17311;BME280;8773;43.300;0.394;2023-07-30T07:47:11;100155.28;;;24.02;nan
17311;BME280;8773;43.300;0.394;2023-07-30T07:49:39;100156.72;;;24.16;nan
17311;BME280;8773;43.300;0.394;2023-07-30T07:52:07;100160.78;;;24.25;nan
17311;BME280;8773;43.300;0.394;2023-07-30T07:54:35;100164.94;;;24.40;nan
17311;BME280;8773;43.300;0.394;2023-07-30T07:57:04;100165.41;;;24.25;nan
17311;BME280;8773;43.300;0.394;2023-07-30T07:59:32;100164.13;;;24.39;nan
17311;BME280;8773;43.300;0.394;2023-07-30T08:01:59;100169.47;;;24.57;nan
17311;BME280;8773;43.300;0.394;2023-07-30T08:04:27;100175.91;;;24.63;nan
17311;BME280;8773;43.300;0.394;2023-07-30T08:06:55;100173.03;;;24.58;nan
17311;BME280;8773;43.300;0.394;2023-07-30T08:09:22;100179.28;;;24.35;nan
17311;BME280;8773;43.300;0.394;2023-07-30T08:11:50;100172.22;;;24.46;nan
17311;BME280;8773;43.300;0.394;2023-07-30T08:14:21;100171.03;;;24.77;nan
17311;BME280;8773;43.300;0.394;2023-07-30T08:16:49;100177.19;;;24.60;nan
17311;BME280;8773;43.300;0.394;2023-07-30T08:19:17;100167.72;;;24.51;nan
17311;BME280;8773;43.300;0.394;2023-07-30T08:21:44;100167.81;;;24.68;nan
17311;BME280;8773;43.300;0.394;2023-07-30T08:24:11;100173.34;;;24.26;nan
17311;BME280;8773;43.300;0.394;2023-07-30T08:26:39;100172.41;;;24.33;nan
17311;BME280;8773;43.300;0.394;2023-07-30T08:29:07;100179.25;;;24.12;nan
17311;BME280;8773;43.300;0.394;2023-07-30T08:31:35;100173.44;;;24.08;nan
17311;BME280;8773;43.300;0.394;2023-07-30T08:34:03;100172.63;;;24.19;nan
17311;BME280;8773;43.300;0.394;2023-07-30T08:36:35;100184.13;;;23.80;nan
17311;BME280;8773;43.300;0.394;2023-07-30T08:39:03;100184.94;;;23.50;nan
17311;BME280;8773;43.300;0.394;2023-07-30T08:41:31;100191.16;;;23.03;nan
17311;BME280;8773;43.300;0.394;2023-07-30T08:43:58;100186.94;;;22.63;nan
17311;BME280;8773;43.300;0.394;2023-07-30T08:46:27;100199.13;;;21.98;nan
17311;BME280;8773;43.300;0.394;2023-07-30T08:48:56;100197.63;;;21.71;nan
17311;BME280;8773;43.300;0.394;2023-07-30T08:51:25;100204.84;;;21.45;nan
17311;BME280;8773;43.300;0.394;2023-07-30T08:53:54;100209.72;;;21.23;nan
17311;BME280;8773;43.300;0.394;2023-07-30T08:56:24;100205.22;;;21.04;nan
17311;BME280;8773;43.300;0.394;2023-07-30T08:58:52;100218.25;;;21.40;nan
17311;BME280;8773;43.300;0.394;2023-07-30T09:01:20;100198.09;;;21.54;nan
17311;BME280;8773;43.300;0.394;2023-07-30T09:03:49;100201.59;;;21.17;nan
17311;BME280;8773;43.300;0.394;2023-07-30T09:06:21;100205.63;;;21.52;nan
17311;BME280;8773;43.300;0.394;2023-07-30T09:08:48;100212.84;;;21.27;nan
17311;BME280;8773;43.300;0.394;2023-07-30T09:11:16;100210.53;;;21.30;nan
17311;BME280;8773;43.300;0.394;2023-07-30T09:13:44;100214.53;;;21.28;nan
17311;BME280;8773;43.300;0.394;2023-07-30T09:16:12;100203.50;;;21.10;nan
17311;BME280;8773;43.300;0.394;2023-07-30T09:18:41;100205.84;;;21.51;nan
17311;BME280;8773;43.300;0.394;2023-07-30T09:21:10;100209.13;;;22.04;nan
17311;BME280;8773;43.300;0.394;2023-07-30T09:23:42;100206.34;;;21.86;nan
17311;BME280;8773;43.300;0.394;2023-07-30T09:26:10;100203.88;;;22.09;nan
17311;BME280;8773;43.300;0.394;2023-07-30T09:28:39;100217.00;;;21.87;nan
17311;BME280;8773;43.300;0.394;2023-07-30T09:31:08;100214.34;;;21.10;nan
17311;BME280;8773;43.300;0.394;2023-07-30T09:33:48;100220.00;;;21.08;nan
17311;BME280;8773;43.300;0.394;2023-07-30T09:36:18;100213.34;;;20.71;nan
17311;BME280;8773;43.300;0.394;2023-07-30T09:38:48;100223.19;;;20.98;nan
17311;BME280;8773;43.300;0.394;2023-07-30T09:41:16;100234.44;;;21.02;nan
17311;BME280;8773;43.300;0.394;2023-07-30T09:43:44;100239.88;;;20.95;nan
17311;BME280;8773;43.300;0.394;2023-07-30T09:46:12;100249.06;;;20.48;nan
17311;BME280;8773;43.300;0.394;2023-07-30T09:48:39;100260.09;;;20.33;nan
17311;BME280;8773;43.300;0.394;2023-07-30T09:51:08;100266.13;;;20.29;nan
17311;BME280;8773;43.300;0.394;2023-07-30T09:53:36;100266.69;;;19.98;nan
17311;BME280;8773;43.300;0.394;2023-07-30T09:56:05;100268.13;;;19.94;nan
17311;BME280;8773;43.300;0.394;2023-07-30T09:58:33;100276.47;;;19.99;nan
17311;BME280;8773;43.300;0.394;2023-07-30T10:01:01;100273.72;;;19.86;nan
17311;BME280;8773;43.300;0.394;2023-07-30T10:03:32;100272.72;;;19.93;nan
17311;BME280;8773;43.300;0.394;2023-07-30T10:06:03;100273.28;;;19.76;nan
17311;BME280;8773;43.300;0.394;2023-07-30T10:08:35;100277.63;;;19.77;nan
17311;BME280;8773;43.300;0.394;2023-07-30T10:11:08;100290.31;;;19.63;nan
17311;BME280;8773;43.300;0.394;2023-07-30T10:13:37;100294.81;;;19.49;nan
17311;BME280;8773;43.300;0.394;2023-07-30T10:16:09;100285.91;;;19.55;nan
17311;BME280;8773;43.300;0.394;2023-07-30T10:18:38;100293.94;;;19.42;nan
17311;BME280;8773;43.300;0.394;2023-07-30T10:21:07;100297.59;;;19.28;nan
17311;BME280;8773;43.300;0.394;2023-07-30T10:23:35;100304.63;;;19.50;nan
17311;BME280;8773;43.300;0.394;2023-07-30T10:26:10;100301.81;;;19.72;nan
17311;BME280;8773;43.300;0.394;2023-07-30T10:28:38;100305.84;;;19.89;nan
17311;BME280;8773;43.300;0.394;2023-07-30T10:31:06;100304.72;;;20.18;nan
17311;BME280;8773;43.300;0.394;2023-07-30T10:33:45;100305.56;;;20.18;nan
17311;BME280;8773;43.300;0.394;2023-07-30T10:36:13;100313.28;;;20.28;nan
17311;BME280;8773;43.300;0.394;2023-07-30T10:38:42;100311.00;;;20.38;nan
17311;BME280;8773;43.300;0.394;2023-07-30T10:41:12;100296.84;;;21.35;nan
17311;BME280;8773;43.300;0.394;2023-07-30T10:43:42;100298.22;;;21.57;nan
17311;BME280;8773;43.300;0.394;2023-07-30T10:46:12;100297.56;;;21.75;nan
17311;BME280;8773;43.300;0.394;2023-07-30T10:48:41;100296.31;;;22.54;nan
17311;BME280;8773;43.300;0.394;2023-07-30T10:51:10;100290.22;;;22.20;nan
17311;BME280;8773;43.300;0.394;2023-07-30T10:53:38;100293.59;;;22.16;nan
17311;BME280;8773;43.300;0.394;2023-07-30T10:56:06;100295.88;;;22.57;nan
17311;BME280;8773;43.300;0.394;2023-07-30T10:58:36;100290.50;;;23.61;nan
17311;BME280;8773;43.300;0.394;2023-07-30T11:01:04;100280.41;;;23.99;nan
17311;BME280;8773;43.300;0.394;2023-07-30T11:03:33;100284.69;;;24.89;nan
17311;BME280;8773;43.300;0.394;2023-07-30T11:06:02;100289.91;;;25.03;nan
17311;BME280;8773;43.300;0.394;2023-07-30T11:08:34;100277.22;;;25.32;nan
17311;BME280;8773;43.300;0.394;2023-07-30T11:11:02;100285.25;;;25.73;nan
17311;BME280;8773;43.300;0.394;2023-07-30T11:13:29;100293.34;;;25.56;nan
17311;BME280;8773;43.300;0.394;2023-07-30T11:15:59;100284.13;;;25.34;nan
17311;BME280;8773;43.300;0.394;2023-07-30T11:18:30;100294.19;;;25.69;nan
17311;BME280;8773;43.300;0.394;2023-07-30T11:21:03;100289.91;;;25.49;nan
17311;BME280;8773;43.300;0.394;2023-07-30T11:23:30;100289.06;;;25.49;nan
17311;BME280;8773;43.300;0.394;2023-07-30T11:26:00;100296.53;;;25.65;nan
17311;BME280;8773;43.300;0.394;2023-07-30T11:28:28;100297.03;;;25.74;nan
17311;BME280;8773;43.300;0.394;2023-07-30T11:31:01;100308.59;;;25.29;nan
17311;BME280;8773;43.300;0.394;2023-07-30T11:33:30;100295.84;;;25.00;nan
17311;BME280;8773;43.300;0.394;2023-07-30T11:36:00;100298.69;;;25.05;nan
17311;BME280;8773;43.300;0.394;2023-07-30T11:38:28;100296.56;;;24.83;nan
17311;BME280;8773;43.300;0.394;2023-07-30T11:40:59;100304.19;;;24.93;nan
17311;BME280;8773;43.300;0.394;2023-07-30T11:43:27;100300.56;;;24.69;nan
17311;BME280;8773;43.300;0.394;2023-07-30T11:46:11;100299.28;;;24.12;nan
17311;BME280;8773;43.300;0.394;2023-07-30T11:48:39;100302.69;;;24.67;nan
17311;BME280;8773;43.300;0.394;2023-07-30T11:51:18;100305.00;;;24.40;nan
17311;BME280;8773;43.300;0.394;2023-07-30T11:53:47;100302.13;;;24.77;nan
17311;BME280;8773;43.300;0.394;2023-07-30T11:56:20;100293.97;;;25.12;nan
17311;BME280;8773;43.300;0.394;2023-07-30T11:58:49;100291.56;;;25.74;nan
17311;BME280;8773;43.300;0.394;2023-07-30T12:01:18;100290.81;;;26.18;nan
17311;BME280;8773;43.300;0.394;2023-07-30T12:03:46;100291.69;;;25.44;nan
17311;BME280;8773;43.300;0.394;2023-07-30T12:06:13;100287.06;;;25.96;nan
17311;BME280;8773;43.300;0.394;2023-07-30T12:08:41;100287.09;;;26.24;nan
17311;BME280;8773;43.300;0.394;2023-07-30T12:11:09;100279.63;;;26.65;nan
17311;BME280;8773;43.300;0.394;2023-07-30T12:13:43;100272.47;;;26.98;nan
17311;BME280;8773;43.300;0.394;2023-07-30T12:16:11;100276.22;;;26.92;nan
17311;BME280;8773;43.300;0.394;2023-07-30T12:18:40;100279.44;;;26.88;nan
17311;BME280;8773;43.300;0.394;2023-07-30T12:21:08;100276.03;;;26.81;nan
17311;BME280;8773;43.300;0.394;2023-07-30T12:23:36;100279.59;;;26.82;nan
17311;BME280;8773;43.300;0.394;2023-07-30T12:26:03;100274.81;;;27.28;nan
17311;BME280;8773;43.300;0.394;2023-07-30T12:28:31;100271.19;;;26.10;nan
17311;BME280;8773;43.300;0.394;2023-07-30T12:30:59;100265.06;;;26.81;nan
17311;BME280;8773;43.300;0.394;2023-07-30T12:33:27;100264.41;;;26.74;nan
17311;BME280;8773;43.300;0.394;2023-07-30T12:35:56;100263.19;;;26.99;nan
17311;BME280;8773;43.300;0.394;2023-07-30T12:38:25;100269.53;;;25.80;nan
17311;BME280;8773;43.300;0.394;2023-07-30T12:40:52;100265.38;;;26.06;nan
17311;BME280;8773;43.300;0.394;2023-07-30T12:43:20;100265.09;;;26.65;nan
17311;BME280;8773;43.300;0.394;2023-07-30T12:45:47;100267.06;;;26.86;nan
17311;BME280;8773;43.300;0.394;2023-07-30T12:48:15;100254.94;;;27.37;nan
17311;BME280;8773;43.300;0.394;2023-07-30T12:50:46;100259.94;;;27.62;nan
17311;BME280;8773;43.300;0.394;2023-07-30T12:53:14;100267.88;;;26.36;nan
17311;BME280;8773;43.300;0.394;2023-07-30T12:55:42;100259.69;;;27.03;nan
17311;BME280;8773;43.300;0.394;2023-07-30T12:58:10;100242.19;;;27.48;nan
17311;BME280;8773;43.300;0.394;2023-07-30T13:00:37;100252.69;;;27.51;nan
17311;BME280;8773;43.300;0.394;2023-07-30T13:03:05;100247.50;;;27.76;nan
17311;BME280;8773;43.300;0.394;2023-07-30T13:05:32;100251.03;;;28.20;nan
17311;BME280;8773;43.300;0.394;2023-07-30T13:08:00;100249.47;;;28.30;nan
17311;BME280;8773;43.300;0.394;2023-07-30T13:10:31;100245.59;;;28.26;nan
17311;BME280;8773;43.300;0.394;2023-07-30T13:12:59;100250.09;;;27.44;nan
17311;BME280;8773;43.300;0.394;2023-07-30T13:15:26;100238.69;;;27.31;nan
17311;BME280;8773;43.300;0.394;2023-07-30T13:17:54;100249.53;;;27.64;nan
17311;BME280;8773;43.300;0.394;2023-07-30T13:20:21;100241.31;;;26.70;nan
17311;BME280;8773;43.300;0.394;2023-07-30T13:22:50;100245.25;;;27.30;nan
17311;BME280;8773;43.300;0.394;2023-07-30T13:25:17;100237.94;;;27.79;nan
17311;BME280;8773;43.300;0.394;2023-07-30T13:27:46;100233.66;;;27.88;nan